PWSweather.com
Personal Weather Stations
Station Observations
KVAGLENALL
West Henrico, Glen Allen, VA 23060-6503

West HenricoGlen Allen, VA 23060-6503

Lat: 37.6554, Lon: -77.5693

Elevation: 273

Station Type: Davis Vantage Pro II

www.glenallenweather.com

High Low Average
Temperature 90.8°F32.7°C 53.0°F11.7°C 74.6°F23.7°C
Dew Point 55.5°F13.1°C 43.7°F6.5°C 50.2°F10.1°C
Winds 13.0 mph 20.9 kmh Calm Calm 5.0 mph SW8.0 kmh SW
Wind Gusts 17.2 mph27.7 kmh 2.0 mph3.2 kmh 8.0 mph12.9 kmh
Humidity 78% 24% 45%
Pressure 30.21 in1023.0 mb 30.08 in1018.6 mb -
Precipitation 0.00 in0.0 mm - -
Hour Temp Dew Point Humidity Winds Wind Gusts Pressure Precip Precip Rate Daily Precip Total
12:00 AM 62.0°F16.7°C 43.7°F6.5°C 51% 2.0 mph S3.2 kmh S 5.1 mph8.2 kmh 30.17 in1021.7 mb 0.00 in0.0 mm 0.00 in0.0 mm 0.00 in0.0 mm
12:15 AM 62.7°F17.1°C 43.8°F6.6°C 50% 2.0 mph SSW3.2 kmh SSW 5.1 mph8.2 kmh 30.17 in1021.7 mb 0.00 in0.0 mm 0.00 in0.0 mm 0.00 in0.0 mm
12:30 AM 62.4°F16.9°C 44.1°F6.7°C 51% 2.0 mph SSW3.2 kmh SSW 5.1 mph8.2 kmh 30.17 in1021.7 mb 0.00 in0.0 mm 0.00 in0.0 mm 0.00 in0.0 mm
12:45 AM 61.8°F16.6°C 44.0°F6.7°C 52% 3.0 mph SSW4.8 kmh SSW 4.0 mph6.4 kmh 30.17 in1021.7 mb 0.00 in0.0 mm 0.00 in0.0 mm 0.00 in0.0 mm
01:00 AM 61.2°F16.2°C 44.4°F6.9°C 54% 4.0 mph SSW6.4 kmh SSW 4.0 mph6.4 kmh 30.16 in1021.3 mb 0.00 in0.0 mm 0.00 in0.0 mm 0.00 in0.0 mm
01:15 AM 61.2°F16.2°C 44.4°F6.9°C 54% 5.0 mph S8.0 kmh S 5.1 mph8.2 kmh 30.16 in1021.3 mb 0.00 in0.0 mm 0.00 in0.0 mm 0.00 in0.0 mm
01:30 AM 61.0°F16.1°C 44.3°F6.8°C 54% 5.0 mph SSW8.0 kmh SSW 5.1 mph8.2 kmh 30.16 in1021.3 mb 0.00 in0.0 mm 0.00 in0.0 mm 0.00 in0.0 mm
01:45 AM 60.9°F16.1°C 44.2°F6.8°C 54% 3.0 mph S4.8 kmh S 3.0 mph4.8 kmh 30.15 in1021.0 mb 0.00 in0.0 mm 0.00 in0.0 mm 0.00 in0.0 mm
02:00 AM 60.4°F15.8°C 43.7°F6.5°C 54% 3.0 mph SSW4.8 kmh SSW 4.0 mph6.4 kmh 30.15 in1021.0 mb 0.00 in0.0 mm 0.00 in0.0 mm 0.00 in0.0 mm
02:15 AM 60.6°F15.9°C 44.4°F6.9°C 55% 1.0 mph SSW1.6 kmh SSW 5.1 mph8.2 kmh 30.15 in1021.0 mb 0.00 in0.0 mm 0.00 in0.0 mm 0.00 in0.0 mm
02:30 AM 60.5°F15.8°C 44.3°F6.8°C 55% 3.0 mph SSW4.8 kmh SSW 4.0 mph6.4 kmh 30.14 in1020.7 mb 0.00 in0.0 mm 0.00 in0.0 mm 0.00 in0.0 mm
02:45 AM 60.4°F15.8°C 44.7°F7.1°C 56% 3.0 mph SSW4.8 kmh SSW 4.0 mph6.4 kmh 30.14 in1020.7 mb 0.00 in0.0 mm 0.00 in0.0 mm 0.00 in0.0 mm
03:00 AM 59.9°F15.5°C 44.6°F7.0°C 57% 3.0 mph SSW4.8 kmh SSW 5.1 mph8.2 kmh 30.14 in1020.7 mb 0.00 in0.0 mm 0.00 in0.0 mm 0.00 in0.0 mm
03:15 AM 60.0°F15.6°C 44.7°F7.1°C 57% 5.0 mph S8.0 kmh S 7.1 mph11.4 kmh 30.14 in1020.7 mb 0.00 in0.0 mm 0.00 in0.0 mm 0.00 in0.0 mm
03:30 AM 60.8°F16.0°C 45.0°F7.2°C 56% 6.0 mph S9.7 kmh S 8.1 mph13.0 kmh 30.14 in1020.7 mb 0.00 in0.0 mm 0.00 in0.0 mm 0.00 in0.0 mm
03:45 AM 61.3°F16.3°C 45.0°F7.2°C 55% 3.0 mph SW4.8 kmh SW 8.1 mph13.0 kmh 30.14 in1020.7 mb 0.00 in0.0 mm 0.00 in0.0 mm 0.00 in0.0 mm
04:00 AM 61.0°F16.1°C 45.2°F7.3°C 56% 4.0 mph SSW6.4 kmh SSW 6.1 mph9.8 kmh 30.14 in1020.7 mb 0.00 in0.0 mm 0.00 in0.0 mm 0.00 in0.0 mm
04:15 AM 59.9°F15.5°C 45.6°F7.6°C 59% 3.0 mph SW4.8 kmh SW 6.1 mph9.8 kmh 30.15 in1021.0 mb 0.00 in0.0 mm 0.00 in0.0 mm 0.00 in0.0 mm
04:30 AM 59.6°F15.3°C 45.3°F7.4°C 59% 6.0 mph SSW9.7 kmh SSW 6.1 mph9.8 kmh 30.16 in1021.3 mb 0.00 in0.0 mm 0.00 in0.0 mm 0.00 in0.0 mm
04:45 AM 58.9°F14.9°C 45.5°F7.5°C 61% 4.0 mph SSW6.4 kmh SSW 6.1 mph9.8 kmh 30.16 in1021.3 mb 0.00 in0.0 mm 0.00 in0.0 mm 0.00 in0.0 mm
05:00 AM 57.9°F14.4°C 46.2°F7.9°C 65% 3.0 mph S4.8 kmh S 5.1 mph8.2 kmh 30.16 in1021.3 mb 0.00 in0.0 mm 0.00 in0.0 mm 0.00 in0.0 mm
05:15 AM 57.2°F14.0°C 45.9°F7.7°C 66% 5.0 mph SSW8.0 kmh SSW 6.1 mph9.8 kmh 30.16 in1021.3 mb 0.00 in0.0 mm 0.00 in0.0 mm 0.00 in0.0 mm
05:30 AM 56.8°F13.8°C 46.0°F7.8°C 67% 2.0 mph SSW3.2 kmh SSW 6.1 mph9.8 kmh 30.16 in1021.3 mb 0.00 in0.0 mm 0.00 in0.0 mm 0.00 in0.0 mm
05:45 AM 56.0°F13.3°C 46.0°F7.8°C 69% 3.0 mph SSW4.8 kmh SSW 4.0 mph6.4 kmh 30.16 in1021.3 mb 0.00 in0.0 mm 0.00 in0.0 mm 0.00 in0.0 mm
06:00 AM 55.0°F12.8°C 45.8°F7.7°C 71% 2.0 mph SSW3.2 kmh SSW 3.0 mph4.8 kmh 30.17 in1021.7 mb 0.00 in0.0 mm 0.00 in0.0 mm 0.00 in0.0 mm
06:15 AM 53.7°F12.1°C 45.9°F7.7°C 75% 3.0 mph SSW4.8 kmh SSW 3.0 mph4.8 kmh 30.17 in1021.7 mb 0.00 in0.0 mm 0.00 in0.0 mm 0.00 in0.0 mm
06:30 AM 53.0°F11.7°C 46.0°F7.8°C 77% 3.0 mph SSW4.8 kmh SSW 4.0 mph6.4 kmh 30.17 in1021.7 mb 0.00 in0.0 mm 0.00 in0.0 mm 0.00 in0.0 mm
06:45 AM 53.0°F11.7°C 46.3°F7.9°C 78% 2.0 mph SSW3.2 kmh SSW 3.0 mph4.8 kmh 30.19 in1022.4 mb 0.00 in0.0 mm 0.00 in0.0 mm 0.00 in0.0 mm
07:00 AM 53.7°F12.1°C 47.0°F8.3°C 78% 1.0 mph SSW1.6 kmh SSW 3.0 mph4.8 kmh 30.19 in1022.4 mb 0.00 in0.0 mm 0.00 in0.0 mm 0.00 in0.0 mm
07:15 AM 55.3°F12.9°C 47.5°F8.6°C 75% 4.0 mph SSW6.4 kmh SSW 4.0 mph6.4 kmh 30.19 in1022.4 mb 0.00 in0.0 mm 0.00 in0.0 mm 0.00 in0.0 mm
07:30 AM 57.4°F14.1°C 48.1°F8.9°C 71% 2.0 mph S3.2 kmh S 2.0 mph3.2 kmh 30.20 in1022.7 mb 0.00 in0.0 mm 0.00 in0.0 mm 0.00 in0.0 mm
07:45 AM 59.3°F15.2°C 48.4°F9.1°C 67% 3.0 mph SSW4.8 kmh SSW 4.0 mph6.4 kmh 30.20 in1022.7 mb 0.00 in0.0 mm 0.00 in0.0 mm 0.00 in0.0 mm
08:00 AM 60.8°F16.0°C 50.2°F10.1°C 68% 4.0 mph S6.4 kmh S 5.1 mph8.2 kmh 30.20 in1022.7 mb 0.00 in0.0 mm 0.00 in0.0 mm 0.00 in0.0 mm
08:15 AM 62.9°F17.2°C 49.7°F9.8°C 62% 3.0 mph SW4.8 kmh SW 6.1 mph9.8 kmh 30.21 in1023.0 mb 0.00 in0.0 mm 0.00 in0.0 mm 0.00 in0.0 mm
08:30 AM 65.7°F18.7°C 50.6°F10.3°C 58% Calm Calm 5.1 mph8.2 kmh 30.21 in1023.0 mb 0.00 in0.0 mm 0.00 in0.0 mm 0.00 in0.0 mm
08:45 AM 67.7°F19.8°C 51.0°F10.6°C 55% 7.0 mph SW11.3 kmh SW 7.1 mph11.4 kmh 30.21 in1023.0 mb 0.00 in0.0 mm 0.00 in0.0 mm 0.00 in0.0 mm
09:00 AM 69.6°F20.9°C 52.2°F11.2°C 54% 3.0 mph WSW4.8 kmh WSW 7.1 mph11.4 kmh 30.21 in1023.0 mb 0.00 in0.0 mm 0.00 in0.0 mm 0.00 in0.0 mm
09:15 AM 71.6°F22.0°C 55.1°F12.8°C 56% 4.0 mph SW6.4 kmh SW 5.1 mph8.2 kmh 30.21 in1023.0 mb 0.00 in0.0 mm 0.00 in0.0 mm 0.00 in0.0 mm
09:30 AM 73.4°F23.0°C 51.9°F11.1°C 47% Calm Calm 3.0 mph4.8 kmh 30.21 in1023.0 mb 0.00 in0.0 mm 0.00 in0.0 mm 0.00 in0.0 mm
09:45 AM 74.5°F23.6°C 52.4°F11.3°C 46% 7.0 mph SSW11.3 kmh SSW 7.1 mph11.4 kmh 30.21 in1023.0 mb 0.00 in0.0 mm 0.00 in0.0 mm 0.00 in0.0 mm
10:00 AM 76.0°F24.4°C 54.3°F12.4°C 47% 7.0 mph S11.3 kmh S 7.1 mph11.4 kmh 30.21 in1023.0 mb 0.00 in0.0 mm 0.00 in0.0 mm 0.00 in0.0 mm
10:15 AM 77.1°F25.1°C 52.9°F11.6°C 43% 3.0 mph SW4.8 kmh SW 4.0 mph6.4 kmh 30.21 in1023.0 mb 0.00 in0.0 mm 0.00 in0.0 mm 0.00 in0.0 mm
10:30 AM 78.6°F25.9°C 54.3°F12.4°C 43% 2.0 mph SSW3.2 kmh SSW 5.1 mph8.2 kmh 30.21 in1023.0 mb 0.00 in0.0 mm 0.00 in0.0 mm 0.00 in0.0 mm
10:45 AM 80.4°F26.9°C 53.9°F12.2°C 40% 1.0 mph SSW1.6 kmh SSW 4.0 mph6.4 kmh 30.21 in1023.0 mb 0.00 in0.0 mm 0.00 in0.0 mm 0.00 in0.0 mm
11:00 AM 81.4°F27.4°C 51.2°F10.7°C 35% 2.0 mph SW3.2 kmh SW 4.0 mph6.4 kmh 30.21 in1023.0 mb 0.00 in0.0 mm 0.00 in0.0 mm 0.00 in0.0 mm
11:15 AM 83.0°F28.3°C 55.5°F13.1°C 39% 3.0 mph S4.8 kmh S 3.0 mph4.8 kmh 30.20 in1022.7 mb 0.00 in0.0 mm 0.00 in0.0 mm 0.00 in0.0 mm
11:30 AM 83.8°F28.8°C 53.3°F11.8°C 35% Calm Calm 3.0 mph4.8 kmh 30.20 in1022.7 mb 0.00 in0.0 mm 0.00 in0.0 mm 0.00 in0.0 mm
11:45 AM 84.5°F29.2°C 51.5°F10.8°C 32% 2.0 mph S3.2 kmh S 6.1 mph9.8 kmh 30.19 in1022.4 mb 0.00 in0.0 mm 0.00 in0.0 mm 0.00 in0.0 mm
12:00 PM 86.0°F30.0°C 52.8°F11.6°C 32% 1.0 mph W1.6 kmh W 3.0 mph4.8 kmh 30.19 in1022.4 mb 0.00 in0.0 mm 0.00 in0.0 mm 0.00 in0.0 mm
12:15 PM 86.3°F30.2°C 54.7°F12.6°C 34% 7.0 mph WSW11.3 kmh WSW 8.1 mph13.0 kmh 30.19 in1022.4 mb 0.00 in0.0 mm 0.00 in0.0 mm 0.00 in0.0 mm
12:30 PM 86.3°F30.2°C 49.4°F9.7°C 28% 2.0 mph SSW3.2 kmh SSW 9.1 mph14.6 kmh 30.18 in1022.0 mb 0.00 in0.0 mm 0.00 in0.0 mm 0.00 in0.0 mm
12:45 PM 87.0°F30.6°C 51.0°F10.6°C 29% 7.0 mph WSW11.3 kmh WSW 8.1 mph13.0 kmh 30.18 in1022.0 mb 0.00 in0.0 mm 0.00 in0.0 mm 0.00 in0.0 mm
01:00 PM 87.6°F30.9°C 46.4°F8.0°C 24% Calm Calm 4.0 mph6.4 kmh 30.17 in1021.7 mb 0.00 in0.0 mm 0.00 in0.0 mm 0.00 in0.0 mm
01:15 PM 88.6°F31.4°C 48.4°F9.1°C 25% 7.0 mph SW11.3 kmh SW 9.1 mph14.6 kmh 30.17 in1021.7 mb 0.00 in0.0 mm 0.00 in0.0 mm 0.00 in0.0 mm
01:30 PM 88.8°F31.6°C 50.6°F10.3°C 27% 3.0 mph W4.8 kmh W 9.1 mph14.6 kmh 30.16 in1021.3 mb 0.00 in0.0 mm 0.00 in0.0 mm 0.00 in0.0 mm
01:45 PM 89.0°F31.7°C 48.7°F9.3°C 25% 12.0 mph WSW19.3 kmh WSW 12.1 mph19.5 kmh 30.16 in1021.3 mb 0.00 in0.0 mm 0.00 in0.0 mm 0.00 in0.0 mm
02:00 PM 89.1°F31.7°C 50.8°F10.4°C 27% 3.0 mph WSW4.8 kmh WSW 8.1 mph13.0 kmh 30.15 in1021.0 mb 0.00 in0.0 mm 0.00 in0.0 mm 0.00 in0.0 mm
02:15 PM 89.6°F32.0°C 51.2°F10.7°C 27% 7.0 mph WSW11.3 kmh WSW 9.1 mph14.6 kmh 30.15 in1021.0 mb 0.00 in0.0 mm 0.00 in0.0 mm 0.00 in0.0 mm
02:30 PM 90.0°F32.2°C 55.3°F12.9°C 31% 2.0 mph NNW3.2 kmh NNW 6.1 mph9.8 kmh 30.14 in1020.7 mb 0.00 in0.0 mm 0.00 in0.0 mm 0.00 in0.0 mm
02:45 PM 90.3°F32.4°C 51.8°F11.0°C 27% 3.0 mph WSW4.8 kmh WSW 11.1 mph17.9 kmh 30.13 in1020.3 mb 0.00 in0.0 mm 0.00 in0.0 mm 0.00 in0.0 mm
03:00 PM 90.3°F32.4°C 52.8°F11.6°C 28% 8.0 mph SSW12.9 kmh SSW 10.1 mph16.3 kmh 30.13 in1020.3 mb 0.00 in0.0 mm 0.00 in0.0 mm 0.00 in0.0 mm
03:15 PM 90.8°F32.7°C 54.2°F12.3°C 29% 2.0 mph SW3.2 kmh SW 11.1 mph17.9 kmh 30.13 in1020.3 mb 0.00 in0.0 mm 0.00 in0.0 mm 0.00 in0.0 mm
03:30 PM 89.7°F32.1°C 51.3°F10.7°C 27% 4.0 mph S6.4 kmh S 4.0 mph6.4 kmh 30.12 in1020.0 mb 0.00 in0.0 mm 0.00 in0.0 mm 0.00 in0.0 mm
03:45 PM 89.7°F32.1°C 49.2°F9.6°C 25% 11.0 mph S17.7 kmh S 16.2 mph26.1 kmh 30.11 in1019.6 mb 0.00 in0.0 mm 0.00 in0.0 mm 0.00 in0.0 mm
04:00 PM 90.1°F32.3°C 50.6°F10.3°C 26% 11.0 mph S17.7 kmh S 14.1 mph22.7 kmh 30.10 in1019.3 mb 0.00 in0.0 mm 0.00 in0.0 mm 0.00 in0.0 mm
04:15 PM 89.1°F31.7°C 49.8°F9.9°C 26% 3.0 mph SW4.8 kmh SW 7.1 mph11.4 kmh 30.10 in1019.3 mb 0.00 in0.0 mm 0.00 in0.0 mm 0.00 in0.0 mm
04:30 PM 89.8°F32.1°C 49.3°F9.6°C 25% 7.0 mph W11.3 kmh W 15.1 mph24.3 kmh 30.10 in1019.3 mb 0.00 in0.0 mm 0.00 in0.0 mm 0.00 in0.0 mm
04:45 PM 89.6°F32.0°C 51.2°F10.7°C 27% 7.0 mph S11.3 kmh S 13.1 mph21.1 kmh 30.10 in1019.3 mb 0.00 in0.0 mm 0.00 in0.0 mm 0.00 in0.0 mm
05:00 PM 89.6°F32.0°C 50.2°F10.1°C 26% 7.0 mph W11.3 kmh W 15.1 mph24.3 kmh 30.10 in1019.3 mb 0.00 in0.0 mm 0.00 in0.0 mm 0.00 in0.0 mm
05:15 PM 89.0°F31.7°C 51.7°F10.9°C 28% 9.0 mph SSW14.5 kmh SSW 13.1 mph21.1 kmh 30.10 in1019.3 mb 0.00 in0.0 mm 0.00 in0.0 mm 0.00 in0.0 mm
05:30 PM 88.8°F31.6°C 52.5°F11.4°C 29% 7.0 mph WNW11.3 kmh WNW 14.1 mph22.7 kmh 30.10 in1019.3 mb 0.00 in0.0 mm 0.00 in0.0 mm 0.00 in0.0 mm
05:45 PM 88.1°F31.2°C 51.0°F10.6°C 28% 6.0 mph WSW9.7 kmh WSW 17.2 mph27.7 kmh 30.09 in1019.0 mb 0.00 in0.0 mm 0.00 in0.0 mm 0.00 in0.0 mm
06:00 PM 87.4°F30.8°C 49.4°F9.7°C 27% 7.0 mph SSW11.3 kmh SSW 10.1 mph16.3 kmh 30.09 in1019.0 mb 0.00 in0.0 mm 0.00 in0.0 mm 0.00 in0.0 mm
06:15 PM 86.6°F30.3°C 51.5°F10.8°C 30% 4.0 mph SW6.4 kmh SW 7.1 mph11.4 kmh 30.09 in1019.0 mb 0.00 in0.0 mm 0.00 in0.0 mm 0.00 in0.0 mm
06:30 PM 86.1°F30.1°C 51.1°F10.6°C 30% 6.0 mph SSW9.7 kmh SSW 9.1 mph14.6 kmh 30.09 in1019.0 mb 0.00 in0.0 mm 0.00 in0.0 mm 0.00 in0.0 mm
06:45 PM 85.4°F29.7°C 50.5°F10.3°C 30% 6.0 mph SW9.7 kmh SW 12.1 mph19.5 kmh 30.09 in1019.0 mb 0.00 in0.0 mm 0.00 in0.0 mm 0.00 in0.0 mm
07:00 PM 84.6°F29.2°C 50.7°F10.4°C 31% 6.0 mph SW9.7 kmh SW 11.1 mph17.9 kmh 30.09 in1019.0 mb 0.00 in0.0 mm 0.00 in0.0 mm 0.00 in0.0 mm
07:15 PM 83.8°F28.8°C 50.0°F10.0°C 31% 13.0 mph SW20.9 kmh SW 13.1 mph21.1 kmh 30.09 in1019.0 mb 0.00 in0.0 mm 0.00 in0.0 mm 0.00 in0.0 mm
07:30 PM 82.9°F28.3°C 50.1°F10.1°C 32% 3.0 mph SSW4.8 kmh SSW 8.1 mph13.0 kmh 30.08 in1018.6 mb 0.00 in0.0 mm 0.00 in0.0 mm 0.00 in0.0 mm
07:45 PM 82.0°F27.8°C 50.1°F10.1°C 33% 10.0 mph SW16.1 kmh SW 13.1 mph21.1 kmh 30.09 in1019.0 mb 0.00 in0.0 mm 0.00 in0.0 mm 0.00 in0.0 mm
08:00 PM 81.3°F27.4°C 51.8°F11.0°C 36% 6.0 mph SSW9.7 kmh SSW 10.1 mph16.3 kmh 30.10 in1019.3 mb 0.00 in0.0 mm 0.00 in0.0 mm 0.00 in0.0 mm
08:15 PM 80.2°F26.8°C 53.7°F12.1°C 40% 5.0 mph SSW8.0 kmh SSW 5.1 mph8.2 kmh 30.10 in1019.3 mb 0.00 in0.0 mm 0.00 in0.0 mm 0.00 in0.0 mm
08:30 PM 79.3°F26.3°C 54.9°F12.7°C 43% 3.0 mph SW4.8 kmh SW 6.1 mph9.8 kmh 30.10 in1019.3 mb 0.00 in0.0 mm 0.00 in0.0 mm 0.00 in0.0 mm
08:45 PM 78.7°F25.9°C 55.0°F12.8°C 44% 5.0 mph SSW8.0 kmh SSW 8.1 mph13.0 kmh 30.10 in1019.3 mb 0.00 in0.0 mm 0.00 in0.0 mm 0.00 in0.0 mm
09:00 PM 77.9°F25.5°C 54.9°F12.7°C 45% 3.0 mph SSW4.8 kmh SSW 7.1 mph11.4 kmh 30.11 in1019.6 mb 0.00 in0.0 mm 0.00 in0.0 mm 0.00 in0.0 mm
09:15 PM 77.2°F25.1°C 54.8°F12.7°C 46% 3.0 mph S4.8 kmh S 10.1 mph16.3 kmh 30.11 in1019.6 mb 0.00 in0.0 mm 0.00 in0.0 mm 0.00 in0.0 mm
09:30 PM 76.7°F24.8°C 54.4°F12.4°C 46% 2.0 mph S3.2 kmh S 10.1 mph16.3 kmh 30.11 in1019.6 mb 0.00 in0.0 mm 0.00 in0.0 mm 0.00 in0.0 mm
09:45 PM 76.5°F24.7°C 54.8°F12.7°C 47% 7.0 mph SW11.3 kmh SW 8.1 mph13.0 kmh 30.11 in1019.6 mb 0.00 in0.0 mm 0.00 in0.0 mm 0.00 in0.0 mm
10:00 PM 75.8°F24.3°C 54.1°F12.3°C 47% 4.0 mph SW6.4 kmh SW 10.1 mph16.3 kmh 30.11 in1019.6 mb 0.00 in0.0 mm 0.00 in0.0 mm 0.00 in0.0 mm
10:15 PM 76.2°F24.6°C 53.9°F12.2°C 46% 6.0 mph SSW9.7 kmh SSW 10.1 mph16.3 kmh 30.12 in1020.0 mb 0.00 in0.0 mm 0.00 in0.0 mm 0.00 in0.0 mm
10:30 PM 76.2°F24.6°C 53.3°F11.8°C 45% 6.0 mph SW9.7 kmh SW 13.1 mph21.1 kmh 30.11 in1019.6 mb 0.00 in0.0 mm 0.00 in0.0 mm 0.00 in0.0 mm
10:45 PM 75.7°F24.3°C 52.9°F11.6°C 45% 6.0 mph SW9.7 kmh SW 12.1 mph19.5 kmh 30.11 in1019.6 mb 0.00 in0.0 mm 0.00 in0.0 mm 0.00 in0.0 mm
11:00 PM 75.2°F24.0°C 53.0°F11.7°C 46% 8.0 mph SSW12.9 kmh SSW 13.1 mph21.1 kmh 30.11 in1019.6 mb 0.00 in0.0 mm 0.00 in0.0 mm 0.00 in0.0 mm
11:15 PM 75.1°F23.9°C 52.9°F11.6°C 46% 6.0 mph SW9.7 kmh SW 9.1 mph14.6 kmh 30.11 in1019.6 mb 0.00 in0.0 mm 0.00 in0.0 mm 0.00 in0.0 mm
11:30 PM 74.7°F23.7°C 53.1°F11.7°C 47% 6.0 mph SW9.7 kmh SW 10.1 mph16.3 kmh 30.11 in1019.6 mb 0.00 in0.0 mm 0.00 in0.0 mm 0.00 in0.0 mm
11:45 PM 74.4°F23.6°C 52.9°F11.6°C 47% 9.0 mph SSW14.5 kmh SSW 13.1 mph21.1 kmh 30.11 in1019.6 mb 0.00 in0.0 mm 0.00 in0.0 mm 0.00 in0.0 mm